Time;durP1;ratioP1;P1;durP2;ratioP2;P2;SDS_P1;SDS_P2;PMS_P1;PMS_P2;Temp;Humidity;BMP_temperature;BMP_pressure;BME280_temperature;BME280_humidity;BME280_pressure;Samples;Min_cycle;Max_cycle;Signal;HPM_P1;HPM_P2
2022/07/10 00:00:43;;;;;;;11.75;11.35;;;;;;;-141.02;100.00;55844.97;5072377;28;20190;-71
2022/07/10 00:03:10;;;;;;;11.40;11.10;;;;;;;-141.02;100.00;55844.97;5072597;28;20718;-72
2022/07/10 00:05:38;;;;;;;11.35;11.05;;;;;;;-141.02;100.00;55844.97;5072292;28;20222;-72
2022/07/10 00:08:05;;;;;;;12.05;11.65;;;;;;;-141.02;100.00;55844.97;5072789;28;20244;-72
2022/07/10 00:10:33;;;;;;;11.13;10.82;;;;;;;-141.02;100.00;55844.97;5072549;28;20198;-72
2022/07/10 00:13:02;;;;;;;11.10;10.80;;;;;;;-141.02;100.00;55844.97;5072198;28;20251;-72
2022/07/10 00:15:31;;;;;;;10.73;10.43;;;;;;;-141.02;100.00;55844.97;5072143;28;20248;-72
2022/07/10 00:17:58;;;;;;;11.18;10.88;;;;;;;-141.02;100.00;55844.97;5072179;28;20201;-72
2022/07/10 00:20:25;;;;;;;11.18;10.88;;;;;;;-141.02;100.00;55844.97;5072120;28;20197;-72
2022/07/10 00:22:52;;;;;;;11.38;10.98;;;;;;;-141.02;100.00;55844.97;5072402;28;20256;-72
2022/07/10 00:25:19;;;;;;;11.50;11.13;;;;;;;-141.02;100.00;55844.97;5072344;28;20248;-72
2022/07/10 00:27:46;;;;;;;11.80;11.40;;;;;;;-141.02;100.00;55844.97;5071962;28;20221;-72
2022/07/10 00:30:15;;;;;;;11.95;11.55;;;;;;;-141.02;100.00;55844.97;5072026;28;20661;-72
2022/07/10 00:32:42;;;;;;;12.35;11.95;;;;;;;-141.02;100.00;55844.97;5072287;28;20232;-72
2022/07/10 00:35:09;;;;;;;11.98;11.57;;;;;;;-141.02;100.00;55844.97;5072300;28;20248;-72
2022/07/10 00:37:37;;;;;;;12.00;11.60;;;;;;;-141.02;100.00;55844.97;5072479;28;20198;-72
2022/07/10 00:40:05;;;;;;;12.48;12.07;;;;;;;-141.02;100.00;55844.97;5072228;28;20196;-72
2022/07/10 00:42:33;;;;;;;12.70;12.30;;;;;;;-141.02;100.00;55844.97;5071918;28;20194;-72
2022/07/10 00:45:00;;;;;;;12.60;12.20;;;;;;;-141.02;100.00;55844.97;5072155;28;20194;-72
2022/07/10 00:47:29;;;;;;;12.63;12.23;;;;;;;-141.02;100.00;55844.97;5072037;28;20280;-72
2022/07/10 00:49:56;;;;;;;12.90;12.50;;;;;;;-141.02;100.00;55844.97;5072091;28;20202;-72
2022/07/10 00:52:23;;;;;;;12.65;12.15;;;;;;;-141.02;100.00;55844.97;5072348;28;20256;-72
2022/07/10 00:54:51;;;;;;;12.75;12.25;;;;;;;-141.02;100.00;55844.97;5071895;28;20230;-73
2022/07/10 00:57:19;;;;;;;12.30;11.90;;;;;;;-141.02;100.00;55844.97;5074499;28;20647;-73
2022/07/10 00:59:47;;;;;;;12.60;12.20;;;;;;;-141.02;100.00;55844.97;5075855;28;20206;-72
2022/07/10 01:02:15;;;;;;;12.13;11.73;;;;;;;-141.02;100.00;55844.97;5076055;28;20198;-72
2022/07/10 01:04:44;;;;;;;12.05;11.65;;;;;;;-141.02;100.00;55844.97;5075744;28;20653;-72
2022/07/10 01:07:11;;;;;;;12.25;11.85;;;;;;;-141.02;100.00;55844.97;5075657;28;20226;-72
2022/07/10 01:09:39;;;;;;;12.27;11.88;;;;;;;-141.02;100.00;55844.97;5075681;28;20205;-73
2022/07/10 01:12:07;;;;;;;12.55;12.15;;;;;;;-141.02;100.00;55844.97;5075839;28;20198;-72
2022/07/10 01:14:37;;;;;;;12.50;12.10;;;;;;;-141.02;100.00;55844.97;5075867;28;20194;-72
2022/07/10 01:17:05;;;;;;;11.90;11.50;;;;;;;-141.02;100.00;55844.97;5075846;28;20210;-72
2022/07/10 01:19:33;;;;;;;12.20;11.80;;;;;;;-141.02;100.00;55844.97;5075439;28;20191;-72
2022/07/10 01:22:01;;;;;;;12.20;11.80;;;;;;;-141.02;100.00;55844.97;5075816;28;20221;-71
2022/07/10 01:24:28;;;;;;;11.88;11.48;;;;;;;-141.02;100.00;55844.97;5075292;28;20748;-72
2022/07/10 01:26:55;;;;;;;12.20;11.80;;;;;;;-141.02;100.00;55844.97;5075288;28;20226;-72
2022/07/10 01:29:23;;;;;;;12.70;12.30;;;;;;;-141.02;100.00;55844.97;5075229;28;20264;-72
2022/07/10 01:31:50;;;;;;;12.75;12.35;;;;;;;-141.02;100.00;55844.97;5075811;28;20195;-72
2022/07/10 01:34:18;;;;;;;12.65;12.25;;;;;;;-141.02;100.00;55844.97;5075486;28;20247;-72
2022/07/10 01:36:45;;;;;;;12.90;12.50;;;;;;;-141.02;100.00;55844.97;5075068;28;20290;-72
2022/07/10 01:39:14;;;;;;;12.10;11.70;;;;;;;-141.02;100.00;55844.97;5075416;28;20256;-72
2022/07/10 01:41:41;;;;;;;11.82;11.43;;;;;;;-141.02;100.00;55844.97;5075341;28;20199;-72
2022/07/10 01:44:08;;;;;;;11.82;11.43;;;;;;;-141.02;100.00;55844.97;5075347;28;20191;-72
2022/07/10 01:46:35;;;;;;;11.60;11.20;;;;;;;-141.02;100.00;55844.97;5075218;28;20280;-72
2022/07/10 01:49:02;;;;;;;11.60;11.20;;;;;;;-141.02;100.00;55844.97;5075178;28;20198;-72
2022/07/10 01:51:29;;;;;;;11.18;10.77;;;;;;;-141.02;100.00;55844.97;5074863;28;20549;-72
2022/07/10 01:53:56;;;;;;;10.23;9.93;;;;;;;-141.02;100.00;55844.97;5075065;28;20199;-73
2022/07/10 01:56:25;;;;;;;10.60;10.30;;;;;;;-141.02;100.00;55844.97;5074606;28;20234;-73
2022/07/10 01:58:52;;;;;;;11.05;10.65;;;;;;;-141.02;100.00;55844.97;5074656;28;20553;-72
2022/07/10 02:01:19;;;;;;;10.68;10.38;;;;;;;-141.02;100.00;55844.97;5074964;28;20256;-73
2022/07/10 02:06:30;;;;;;;10.80;10.50;;;;;;;-141.02;100.00;55844.97;5074384;28;20217;-72
2022/07/10 02:08:57;;;;;;;10.80;10.50;;;;;;;-141.02;100.00;55844.97;5074625;28;20248;-72
2022/07/10 02:11:26;;;;;;;11.00;10.60;;;;;;;-141.02;100.00;55844.97;5074778;28;20257;-72
2022/07/10 02:13:53;;;;;;;10.75;10.45;;;;;;;-141.02;100.00;55844.97;5074415;28;20201;-72
2022/07/10 02:16:20;;;;;;;11.35;10.95;;;;;;;-141.02;100.00;55844.97;5074717;28;20203;-73
2022/07/10 02:18:47;;;;;;;11.20;10.80;;;;;;;-141.02;100.00;55844.97;5074659;28;20202;-72
2022/07/10 02:21:14;;;;;;;11.07;10.68;;;;;;;-141.02;100.00;55844.97;5074582;28;20198;-73
2022/07/10 02:23:42;;;;;;;11.63;11.23;;;;;;;-141.02;100.00;55844.97;5074832;28;20248;-73
2022/07/10 02:26:09;;;;;;;11.38;10.98;;;;;;;-141.02;100.00;55844.97;5074487;28;20222;-73
2022/07/10 02:28:37;;;;;;;11.15;10.75;;;;;;;-141.02;100.00;55844.97;5074145;28;20197;-73
2022/07/10 02:31:04;;;;;;;10.95;10.55;;;;;;;-141.02;100.00;55844.97;5074465;28;20194;-73
2022/07/10 02:33:31;;;;;;;10.30;10.00;;;;;;;-141.02;100.00;55844.97;5074365;28;20198;-73
2022/07/10 02:35:58;;;;;;;10.20;9.90;;;;;;;-141.02;100.00;55844.97;5074330;28;20191;-73
2022/07/10 02:38:26;;;;;;;10.20;9.90;;;;;;;-141.02;100.00;55844.97;5074271;28;20230;-73
2022/07/10 02:40:53;;;;;;;9.98;9.68;;;;;;;-141.02;100.00;55844.97;5074209;28;20194;-73
2022/07/10 02:43:20;;;;;;;9.90;9.60;;;;;;;-141.02;100.00;55844.97;5074235;28;20229;-73
2022/07/10 02:45:48;;;;;;;9.80;9.50;;;;;;;-141.02;100.00;55844.97;5073829;28;20276;-73
2022/07/10 02:48:17;;;;;;;10.40;10.10;;;;;;;-141.02;100.00;55844.97;5074079;28;20600;-73
2022/07/10 02:50:45;;;;;;;10.40;10.10;;;;;;;-141.02;100.00;55844.97;5074023;28;20198;-73
2022/07/10 02:53:12;;;;;;;10.65;10.35;;;;;;;-141.02;100.00;55844.97;5073703;28;20198;-73
2022/07/10 02:55:39;;;;;;;10.70;10.40;;;;;;;-141.02;100.00;55844.97;5073740;28;20305;-73
2022/07/10 02:58:06;;;;;;;10.60;10.30;;;;;;;-141.02;100.00;55844.97;5073639;28;20191;-73
2022/07/10 03:00:33;;;;;;;10.60;10.30;;;;;;;-141.02;100.00;55844.97;5073870;28;20194;-73
2022/07/10 03:03:02;;;;;;;10.30;10.00;;;;;;;-141.02;100.00;55844.97;5074027;28;20195;-73
2022/07/10 03:05:29;;;;;;;10.32;10.02;;;;;;;-141.02;100.00;55844.97;5073805;28;20194;-73
2022/07/10 03:07:56;;;;;;;10.32;10.02;;;;;;;-141.02;100.00;55844.97;5073571;28;20269;-73
2022/07/10 03:10:24;;;;;;;9.90;9.60;;;;;;;-141.02;100.00;55844.97;5073685;28;20259;-73
2022/07/10 03:12:51;;;;;;;10.05;9.75;;;;;;;-141.02;100.00;55844.97;5073298;28;20644;-73
2022/07/10 03:15:18;;;;;;;10.50;10.20;;;;;;;-141.02;100.00;55844.97;5073228;28;20195;-73
2022/07/10 03:17:45;;;;;;;10.30;10.00;;;;;;;-141.02;100.00;55844.97;5073476;28;20653;-73
2022/07/10 03:20:14;;;;;;;10.43;10.13;;;;;;;-141.02;100.00;55844.97;5072490;28;20199;-73
2022/07/10 03:22:41;;;;;;;10.65;10.35;;;;;;;-141.02;100.00;55844.97;5073091;28;20190;-72
2022/07/10 03:25:09;;;;;;;10.57;10.27;;;;;;;-141.02;100.00;55844.97;5073293;28;20277;-73
2022/07/10 03:27:36;;;;;;;10.68;10.38;;;;;;;-141.02;100.00;55844.97;5072935;28;20222;-73
2022/07/10 03:30:04;;;;;;;10.70;10.30;;;;;;;-141.02;100.00;55844.97;5073263;28;20194;-73
2022/07/10 03:32:31;;;;;;;10.35;10.05;;;;;;;-141.02;100.00;55844.97;5073205;28;20198;-73
2022/07/10 03:34:58;;;;;;;10.00;9.70;;;;;;;-141.02;100.00;55844.97;5072901;28;20229;-73
2022/07/10 03:37:27;;;;;;;9.88;9.57;;;;;;;-141.02;100.00;55844.97;5072868;28;20726;-73
2022/07/10 03:39:54;;;;;;;10.50;10.20;;;;;;;-141.02;100.00;55844.97;5072815;28;20676;-73
2022/07/10 03:42:21;;;;;;;9.70;9.40;;;;;;;-141.02;100.00;55844.97;5072753;28;20280;-73
2022/07/10 03:44:48;;;;;;;10.15;9.85;;;;;;;-141.02;100.00;55844.97;5072939;28;20730;-73
2022/07/10 03:47:15;;;;;;;10.63;10.32;;;;;;;-141.02;100.00;55844.97;5072886;28;20249;-73
2022/07/10 03:49:42;;;;;;;10.43;10.13;;;;;;;-141.02;100.00;55844.97;5072905;28;20194;-73
2022/07/10 03:52:09;;;;;;;10.43;10.13;;;;;;;-141.02;100.00;55844.97;5072852;28;20198;-73
2022/07/10 03:54:38;;;;;;;10.63;10.32;;;;;;;-141.02;100.00;55844.97;5072539;28;20194;-73
2022/07/10 03:59:50;;;;;;;10.70;10.40;;;;;;;-141.02;100.00;55844.97;5073116;28;20251;-73
2022/07/10 04:02:17;;;;;;;11.10;10.70;;;;;;;-141.02;100.00;55844.97;5072417;28;20198;-73
2022/07/10 04:04:44;;;;;;;11.30;10.90;;;;;;;-141.02;100.00;55844.97;5072688;28;20202;-73
2022/07/10 04:07:12;;;;;;;11.10;10.70;;;;;;;-141.02;100.00;55844.97;5072211;28;20226;-73
2022/07/10 04:09:41;;;;;;;11.32;10.93;;;;;;;-141.02;100.00;55844.97;5072286;28;20199;-73
2022/07/10 04:12:08;;;;;;;12.18;11.77;;;;;;;-141.02;100.00;55844.97;5072500;28;20279;-73
2022/07/10 04:14:36;;;;;;;12.10;11.70;;;;;;;-141.02;100.00;55844.97;5072227;28;20736;-73
2022/07/10 04:17:03;;;;;;;11.95;11.55;;;;;;;-141.02;100.00;55844.97;5072496;28;20209;-73
2022/07/10 04:19:30;;;;;;;12.32;11.93;;;;;;;-141.02;100.00;55844.97;5072401;28;20267;-73
2022/07/10 04:21:57;;;;;;;12.80;12.30;;;;;;;-141.02;100.00;55844.97;5072166;28;20190;-73
2022/07/10 04:24:24;;;;;;;12.70;12.20;;;;;;;-141.02;100.00;55844.97;5072328;28;20253;-72
2022/07/10 04:26:53;;;;;;;12.45;12.05;;;;;;;-141.02;100.00;55844.97;5072247;28;20198;-73
2022/07/10 04:29:20;;;;;;;13.40;12.90;;;;;;;-141.02;100.00;55844.97;5071997;28;20660;-73
2022/07/10 04:31:47;;;;;;;13.07;12.57;;;;;;;-141.02;100.00;55844.97;5071844;28;20252;-73
2022/07/10 04:34:14;;;;;;;13.55;13.05;;;;;;;-141.02;100.00;55844.97;5072325;28;20203;-73
2022/07/10 04:36:41;;;;;;;13.48;12.98;;;;;;;-141.02;100.00;55844.97;5071951;28;20190;-73
2022/07/10 04:39:08;;;;;;;13.88;13.38;;;;;;;-141.02;100.00;55844.97;5071975;28;20240;-73
2022/07/10 04:41:36;;;;;;;13.68;13.18;;;;;;;-141.02;100.00;55844.97;5071905;28;20230;-73
2022/07/10 04:44:05;;;;;;;13.73;13.23;;;;;;;-141.02;100.00;55844.97;5072181;28;20286;-73
2022/07/10 04:46:32;;;;;;;14.05;13.55;;;;;;;-141.02;100.00;55844.97;5072156;28;20202;-73
2022/07/10 04:48:59;;;;;;;13.98;13.48;;;;;;;-141.02;100.00;55844.97;5072065;28;20234;-72
2022/07/10 04:51:26;;;;;;;14.10;13.60;;;;;;;-141.02;100.00;55844.97;5071822;28;20233;-73
2022/07/10 04:53:53;;;;;;;14.07;13.57;;;;;;;-141.02;100.00;55844.97;5071790;28;20667;-73
2022/07/10 04:56:21;;;;;;;14.30;13.80;;;;;;;-141.02;100.00;55844.97;5071650;28;20625;-73
2022/07/10 04:58:48;;;;;;;17.10;15.52;;;;;;;-141.02;100.00;55844.97;5072001;28;20198;-73
2022/07/10 05:01:16;;;;;;;16.00;15.30;;;;;;;-141.02;100.00;55844.97;5072023;28;20191;-73
2022/07/10 05:03:43;;;;;;;15.15;14.55;;;;;;;-141.02;100.00;55844.97;5071976;28;20624;-73
2022/07/10 05:06:10;;;;;;;16.40;15.70;;;;;;;-141.02;100.00;55844.97;5071634;28;20195;-72
2022/07/10 05:08:38;;;;;;;16.45;15.75;;;;;;;-141.02;100.00;55844.97;5071601;28;20262;-72
2022/07/10 05:11:05;;;;;;;18.20;17.40;;;;;;;-141.02;100.00;55844.97;5071845;28;20194;-73
2022/07/10 05:13:32;;;;;;;17.15;16.45;;;;;;;-141.02;100.00;55844.97;5071887;28;20199;-71
2022/07/10 05:15:59;;;;;;;15.30;14.70;;;;;;;-141.02;100.00;55844.97;5071606;28;20198;-73
2022/07/10 05:18:28;;;;;;;15.43;14.82;;;;;;;-141.02;100.00;55844.97;5071585;28;20616;-73
2022/07/10 05:20:55;;;;;;;15.57;14.98;;;;;;;-141.02;100.00;55844.97;5071818;28;20746;-73
2022/07/10 05:23:22;;;;;;;15.60;15.00;;;;;;;-141.02;100.00;55844.97;5072091;28;20229;-73
2022/07/10 05:25:49;;;;;;;16.00;15.35;;;;;;;-141.02;100.00;55844.97;5071581;28;20233;-73
2022/07/10 05:28:16;;;;;;;15.75;15.05;;;;;;;-141.02;100.00;55844.97;5071930;28;20227;-73
2022/07/10 05:30:43;;;;;;;16.40;15.60;;;;;;;-141.02;100.00;55844.97;5071474;28;20191;-73
2022/07/10 05:33:11;;;;;;;16.63;15.82;;;;;;;-141.02;100.00;55844.97;5071530;28;20641;-73
2022/07/10 05:35:39;;;;;;;17.25;16.35;;;;;;;-141.02;100.00;55844.97;5071373;28;20664;-73
2022/07/10 05:38:06;;;;;;;17.52;16.63;;;;;;;-141.02;100.00;55844.97;5071706;28;20217;-73
2022/07/10 05:40:33;;;;;;;18.27;17.27;;;;;;;-141.02;100.00;55844.97;5071307;28;20553;-73
2022/07/10 05:43:00;;;;;;;18.13;17.23;;;;;;;-141.02;100.00;55844.97;5073649;28;20625;-73
2022/07/10 05:45:28;;;;;;;19.15;18.20;;;;;;;-141.02;100.00;55844.97;5075051;28;20292;-74
2022/07/10 05:47:55;;;;;;;18.60;17.70;;;;;;;-141.02;100.00;55844.97;5075165;28;20315;-72
2022/07/10 05:50:22;;;;;;;18.92;18.02;;;;;;;-141.02;100.00;55844.97;5075219;28;20202;-73
2022/07/10 05:52:50;;;;;;;18.38;17.48;;;;;;;-141.02;100.00;55844.97;5075132;28;20194;-73
2022/07/10 05:55:17;;;;;;;20.65;19.45;;;;;;;-141.02;100.00;55844.97;5074917;28;20226;-73
2022/07/10 05:57:44;;;;;;;18.40;17.50;;;;;;;-141.02;100.00;55844.97;5074831;28;20249;-73
2022/07/10 06:00:12;;;;;;;18.30;17.40;;;;;;;-141.02;100.00;55844.97;5075015;28;20225;-73
2022/07/10 06:02:39;;;;;;;19.13;18.23;;;;;;;-141.02;100.00;55844.97;5074999;28;20419;-72
2022/07/10 06:05:07;;;;;;;19.10;18.17;;;;;;;-141.02;100.00;55844.97;5074607;28;20193;-72
2022/07/10 06:07:35;;;;;;;19.58;18.58;;;;;;;-141.02;100.00;55844.97;5074838;28;20245;-73
2022/07/10 06:10:05;;;;;;;18.75;17.85;;;;;;;-141.02;100.00;55844.97;5074485;28;20233;-73
2022/07/10 06:12:32;;;;;;;19.02;18.13;;;;;;;-141.02;100.00;55844.97;5074635;28;20567;-73
2022/07/10 06:15:00;;;;;;;18.50;17.60;;;;;;;-141.02;100.00;55844.97;5074456;28;20195;-73
2022/07/10 06:17:27;;;;;;;18.38;17.48;;;;;;;-141.02;100.00;55844.97;5074400;28;20661;-73
2022/07/10 06:19:54;;;;;;;18.52;17.63;;;;;;;-141.02;100.00;55844.97;5074615;28;20722;-73
2022/07/10 06:22:33;;;;;;;18.88;17.98;;;;;;;-141.02;100.00;55844.97;5074298;28;20285;-73
2022/07/10 06:25:04;;;;;;;18.95;18.05;;;;;;;-141.02;100.00;55844.97;5074641;28;20251;-73
2022/07/10 06:27:32;;;;;;;18.77;17.88;;;;;;;-141.02;100.00;55844.97;5074206;28;20256;-73
2022/07/10 06:29:59;;;;;;;18.80;17.90;;;;;;;-141.02;100.00;55844.97;5074472;28;20256;-73
2022/07/10 06:32:26;;;;;;;19.13;18.23;;;;;;;-141.02;100.00;55844.97;5074400;28;20222;-73
2022/07/10 06:34:54;;;;;;;19.67;18.67;;;;;;;-141.02;100.00;55844.97;5074126;28;20194;-72
2022/07/10 06:37:21;;;;;;;19.50;18.50;;;;;;;-141.02;100.00;55844.97;5074275;28;20199;-73
2022/07/10 06:39:48;;;;;;;19.00;18.00;;;;;;;-141.02;100.00;55844.97;5074300;28;20198;-73
2022/07/10 06:42:17;;;;;;;18.88;17.98;;;;;;;-141.02;100.00;55844.97;5073972;28;20260;-73
2022/07/10 06:44:45;;;;;;;19.63;18.63;;;;;;;-141.02;100.00;55844.97;5074155;28;20198;-72
2022/07/10 06:49:59;;;;;;;19.60;18.60;;;;;;;-141.02;100.00;55844.97;5073981;28;20197;-72
2022/07/10 06:52:27;;;;;;;20.13;19.13;;;;;;;-141.02;100.00;55844.97;5073742;28;20190;-73
2022/07/10 06:54:54;;;;;;;19.90;18.90;;;;;;;-141.02;100.00;55844.97;5073632;28;20194;-73
2022/07/10 06:57:23;;;;;;;19.75;18.75;;;;;;;-141.02;100.00;55844.97;5073740;28;20237;-72
2022/07/10 06:59:51;;;;;;;19.50;18.50;;;;;;;-141.02;100.00;55844.97;5073898;28;20202;-73
2022/07/10 07:02:18;;;;;;;19.63;18.63;;;;;;;-141.02;100.00;55844.97;5073920;28;20234;-73
2022/07/10 07:04:45;;;;;;;19.10;18.10;;;;;;;-141.02;100.00;55844.97;5074616;28;20198;-72
2022/07/10 07:07:13;;;;;;;19.60;18.60;;;;;;;-141.02;100.00;55844.97;5073439;28;20217;-72
2022/07/10 07:09:40;;;;;;;19.17;18.17;;;;;;;-141.02;100.00;55844.97;5073627;28;20230;-72
2022/07/10 07:12:08;;;;;;;18.83;17.83;;;;;;;-141.02;100.00;55844.97;5073310;28;20575;-72
2022/07/10 07:14:37;;;;;;;19.38;18.38;;;;;;;-141.02;100.00;55844.97;5073347;28;20195;-73
2022/07/10 07:17:08;;;;;;;18.80;17.80;;;;;;;-141.02;100.00;55844.97;5073545;28;20195;-73
2022/07/10 07:25:01;;;;;;;19.02;17.92;;;;;;;-141.02;100.00;55844.97;5073555;28;20381;-73
2022/07/10 07:27:28;;;;;;;19.35;18.25;;;;;;;-141.02;100.00;55844.97;5073348;28;20261;-73
2022/07/10 07:29:56;;;;;;;19.95;18.85;;;;;;;-141.02;100.00;55844.97;5072949;28;20229;-74
2022/07/10 07:32:23;;;;;;;19.80;18.70;;;;;;;-141.02;100.00;55844.97;5073196;28;20616;-73
2022/07/10 07:34:50;;;;;;;19.88;18.75;;;;;;;-141.02;100.00;55844.97;5072946;28;20562;-73
2022/07/10 07:37:17;;;;;;;19.98;18.83;;;;;;;-141.02;100.00;55844.97;5073171;28;20201;-73
2022/07/10 07:39:45;;;;;;;19.83;18.63;;;;;;;-141.02;100.00;55844.97;5073112;28;20194;-73
2022/07/10 07:42:12;;;;;;;19.77;18.60;;;;;;;-141.02;100.00;55844.97;5072769;28;20656;-72
2022/07/10 07:44:39;;;;;;;18.42;17.33;;;;;;;-141.02;100.00;55844.97;5073003;28;20671;-74
2022/07/10 07:47:07;;;;;;;18.90;17.80;;;;;;;-141.02;100.00;55844.97;5073021;28;20249;-72
2022/07/10 07:49:34;;;;;;;17.92;16.92;;;;;;;-141.02;100.00;55844.97;5072858;28;20226;-73
2022/07/10 07:52:02;;;;;;;18.20;17.20;;;;;;;-141.02;100.00;55844.97;5073158;28;20244;-73
2022/07/10 07:54:29;;;;;;;18.00;17.00;;;;;;;-141.02;100.00;55844.97;5073116;28;20442;-73
2022/07/10 07:56:57;;;;;;;18.02;17.02;;;;;;;-141.02;100.00;55844.97;5072514;28;20241;-72
2022/07/10 07:59:24;;;;;;;17.98;16.98;;;;;;;-141.02;100.00;55844.97;5072776;28;20195;-73
2022/07/10 08:01:53;;;;;;;17.27;16.27;;;;;;;-141.02;100.00;55844.97;5072722;28;20224;-74
2022/07/10 08:04:21;;;;;;;17.48;16.48;;;;;;;-141.02;100.00;55844.97;5072611;28;20194;-75
2022/07/10 08:06:51;;;;;;;16.88;15.98;;;;;;;-141.02;100.00;55844.97;5072340;28;20194;-75
2022/07/10 08:09:19;;;;;;;17.33;16.33;;;;;;;-141.02;100.00;55844.97;5072564;28;20213;-73
2022/07/10 08:11:46;;;;;;;17.27;16.27;;;;;;;-141.02;100.00;55844.97;5072278;28;20197;-75
2022/07/10 08:14:13;;;;;;;17.60;16.58;;;;;;;-141.02;100.00;55844.97;5072561;28;20205;-73
2022/07/10 08:16:40;;;;;;;17.38;16.38;;;;;;;-141.02;100.00;55844.97;5072528;28;20328;-75
2022/07/10 08:19:07;;;;;;;17.90;16.90;;;;;;;-141.02;100.00;55844.97;5072146;28;20226;-74
2022/07/10 08:21:36;;;;;;;18.10;17.10;;;;;;;-141.02;100.00;55844.97;5072169;28;20664;-74
2022/07/10 08:24:03;;;;;;;17.40;16.40;;;;;;;-141.02;100.00;55844.97;5072624;28;20198;-75
2022/07/10 08:26:30;;;;;;;17.02;16.13;;;;;;;-141.02;100.00;55844.97;5072108;28;20203;-74
2022/07/10 08:28:57;;;;;;;16.83;15.93;;;;;;;-141.02;100.00;55844.97;5072000;28;20312;-74
2022/07/10 08:31:25;;;;;;;17.02;16.13;;;;;;;-141.02;100.00;55844.97;5072242;28;20657;-74
2022/07/10 08:33:52;;;;;;;17.05;16.15;;;;;;;-141.02;100.00;55844.97;5072274;28;20687;-73
2022/07/10 08:36:19;;;;;;;16.88;15.98;;;;;;;-141.02;100.00;55844.97;5072323;28;20255;-74
2022/07/10 08:38:47;;;;;;;16.85;15.95;;;;;;;-141.02;100.00;55844.97;5072497;28;20232;-73
2022/07/10 08:41:16;;;;;;;17.38;16.48;;;;;;;-141.02;100.00;55844.97;5072195;28;20198;-73
2022/07/10 08:43:43;;;;;;;17.05;16.15;;;;;;;-141.02;100.00;55844.97;5071812;28;20190;-73
2022/07/10 08:46:13;;;;;;;17.05;16.15;;;;;;;-141.02;100.00;55844.97;5072163;28;20649;-74
2022/07/10 08:48:43;;;;;;;17.33;16.42;;;;;;;-141.02;100.00;55844.97;5072069;28;20312;-73
2022/07/10 08:51:17;;;;;;;18.30;17.38;;;;;;;-141.02;100.00;55844.97;5071869;28;20194;-73
2022/07/10 08:53:45;;;;;;;18.20;17.30;;;;;;;-141.02;100.00;55844.97;5071793;28;20190;-75
2022/07/10 08:56:14;;;;;;;17.27;16.38;;;;;;;-141.02;100.00;55844.97;5071596;28;20248;-73
2022/07/10 08:58:41;;;;;;;17.30;16.50;;;;;;;-141.02;100.00;55844.97;5072077;28;20202;-74
2022/07/10 09:01:09;;;;;;;17.80;16.90;;;;;;;-141.02;100.00;55844.97;5071740;28;20377;-74
2022/07/10 09:03:38;;;;;;;17.88;16.98;;;;;;;-141.02;100.00;55844.97;5071700;28;20198;-73
2022/07/10 09:06:07;;;;;;;17.80;16.92;;;;;;;-141.02;100.00;55844.97;5071636;28;20209;-75
2022/07/10 09:08:35;;;;;;;18.20;17.30;;;;;;;-141.02;100.00;55844.97;5072123;28;20701;-74
2022/07/10 09:11:16;;;;;;;17.77;16.98;;;;;;;-141.02;100.00;55844.97;5071625;28;20230;-73
2022/07/10 09:13:51;;;;;;;18.17;17.27;;;;;;;-141.02;100.00;55844.97;5071654;28;20197;-73
2022/07/10 09:16:25;;;;;;;18.58;17.67;;;;;;;-141.02;100.00;55844.97;5071595;28;20203;-75
2022/07/10 09:18:52;;;;;;;19.60;18.60;;;;;;;-141.02;100.00;55844.97;5075455;28;20198;-76
2022/07/10 09:21:19;;;;;;;18.77;17.88;;;;;;;-141.02;100.00;55844.97;5075712;28;20198;-75
2022/07/10 09:23:46;;;;;;;19.63;18.63;;;;;;;-141.02;100.00;55844.97;5075777;28;20197;-75
2022/07/10 09:26:15;;;;;;;19.20;18.30;;;;;;;-141.02;100.00;55844.97;5075321;28;20247;-75
2022/07/10 09:28:42;;;;;;;19.58;18.58;;;;;;;-141.02;100.00;55844.97;5075251;28;20222;-75
2022/07/10 09:31:09;;;;;;;19.48;18.48;;;;;;;-141.02;100.00;55844.97;5075591;28;20665;-75
2022/07/10 09:33:37;;;;;;;18.75;17.85;;;;;;;-141.02;100.00;55844.97;5075211;28;20202;-78
2022/07/10 09:36:08;;;;;;;18.85;17.95;;;;;;;-141.02;100.00;55844.97;5075218;28;20196;-75
2022/07/10 09:38:53;;;;;;;18.75;17.85;;;;;;;-141.02;100.00;55844.97;5075100;28;20194;-76
2022/07/10 09:41:27;;;;;;;19.98;18.98;;;;;;;-141.02;100.00;55844.97;5075155;28;20199;-76
2022/07/10 09:43:56;;;;;;;19.80;18.80;;;;;;;-141.02;100.00;55844.97;5075067;28;20648;-75
2022/07/10 09:46:25;;;;;;;19.83;18.83;;;;;;;-141.02;100.00;55844.97;5075328;28;20233;-75
2022/07/10 09:49:06;;;;;;;20.27;19.27;;;;;;;-141.02;100.00;55844.97;5074843;28;20719;-74
2022/07/10 09:51:35;;;;;;;20.35;19.30;;;;;;;-141.02;100.00;55844.97;5074991;28;20186;-75
2022/07/10 09:54:04;;;;;;;21.20;20.10;;;;;;;-141.02;100.00;55844.97;5074916;28;20206;-74
2022/07/10 09:56:38;;;;;;;20.65;19.55;;;;;;;-141.02;100.00;55844.97;5074743;28;20708;-75
2022/07/10 09:59:09;;;;;;;20.25;19.25;;;;;;;-141.02;100.00;55844.97;5074791;28;20194;-74
2022/07/10 10:01:38;;;;;;;19.77;18.77;;;;;;;-141.02;100.00;55844.97;5075069;28;20191;-73
2022/07/10 10:04:06;;;;;;;20.35;19.25;;;;;;;-141.02;100.00;55844.97;5074890;28;20194;-74
2022/07/10 10:06:34;;;;;;;20.75;19.65;;;;;;;-141.02;100.00;55844.97;5074979;28;20210;-74
2022/07/10 10:09:08;;;;;;;20.05;18.95;;;;;;;-141.02;100.00;55844.97;5074503;28;20704;-76
2022/07/10 10:11:38;;;;;;;19.70;18.70;;;;;;;-141.02;100.00;55844.97;5074815;28;20187;-75
2022/07/10 10:14:08;;;;;;;19.92;18.85;;;;;;;-141.02;100.00;55844.97;5075874;28;20198;-75
2022/07/10 10:16:37;;;;;;;20.10;19.00;;;;;;;-141.02;100.00;55844.97;5074808;28;20187;-75
2022/07/10 10:21:58;;;;;;;20.52;19.42;;;;;;;-141.02;100.00;55844.97;5038469;28;20229;-74
2022/07/10 10:24:26;;;;;;;20.38;19.27;;;;;;;-141.02;100.00;55844.97;5074580;28;20233;-75
2022/07/10 10:26:55;;;;;;;21.30;20.10;;;;;;;-141.02;100.00;55844.97;5074784;28;20232;-74
2022/07/10 10:29:22;;;;;;;20.52;19.42;;;;;;;-141.02;100.00;55844.97;5074276;28;20226;-74
2022/07/10 10:31:50;;;;;;;20.20;19.10;;;;;;;-141.02;100.00;55844.97;5074488;28;20626;-75
2022/07/10 10:34:39;;;;;;;20.20;19.00;;;;;;;-141.02;100.00;55844.97;5074152;28;20549;-74
2022/07/10 10:37:07;;;;;;;20.30;19.20;;;;;;;-141.02;100.00;55844.97;5074086;28;20644;-75
2022/07/10 10:39:53;;;;;;;20.63;19.42;;;;;;;-141.02;100.00;55844.97;5074066;28;20202;-75
2022/07/10 10:42:36;;;;;;;20.55;19.35;;;;;;;-141.02;100.00;55844.97;5074127;28;20195;-75
2022/07/10 10:45:39;;;;;;;20.50;19.30;;;;;;;-141.02;100.00;55844.97;5073981;28;20671;-75
2022/07/10 10:48:08;;;;;;;20.23;19.02;;;;;;;-141.02;100.00;55844.97;5073878;28;20194;-75
2022/07/10 10:50:40;;;;;;;19.90;18.70;;;;;;;-141.02;100.00;55844.97;5073733;28;20234;-76
2022/07/10 10:53:15;;;;;;;19.75;18.55;;;;;;;-141.02;100.00;55844.97;5073761;28;20277;-77
2022/07/10 10:56:14;;;;;;;20.33;19.13;;;;;;;-141.02;100.00;55844.97;5073739;28;20229;-76
2022/07/10 10:58:44;;;;;;;19.52;18.42;;;;;;;-141.02;100.00;55844.97;5073588;28;20275;-75
2022/07/10 11:01:26;;;;;;;19.30;18.20;;;;;;;-141.02;100.00;55844.97;5073672;28;20199;-75
2022/07/10 11:04:24;;;;;;;20.08;18.88;;;;;;;-141.02;100.00;55844.97;5073593;28;20634;-74
2022/07/10 11:06:52;;;;;;;20.45;19.20;;;;;;;-141.02;100.00;55844.97;5011879;28;20192;-74
2022/07/10 11:09:24;;;;;;;20.35;19.08;;;;;;;-141.02;100.00;55844.97;5059834;28;20264;-74
2022/07/10 11:12:05;;;;;;;20.30;19.10;;;;;;;-141.02;100.00;55844.97;5073397;28;20244;-75
2022/07/10 11:14:36;;;;;;;20.13;18.92;;;;;;;-141.02;100.00;55844.97;5073400;28;20667;-77
2022/07/10 11:17:04;;;;;;;20.02;18.83;;;;;;;-141.02;100.00;55844.97;5073284;28;20622;-74